KDEH/DEH METAR and TAF weather

Enter ICAO airport designator
Station Type Date Time Source
KDEH METAR 2019/06/18 12:35 UTC NOAA

KDEH 181235Z AUTO 00000KT 2 1/2SM BR BKN011 BKN046 BKN055 18/17 A2997 RMK AO2


Station Type Date Time Source
KDEH Decoded METAR 2019/06/18 12:35 UTC NOAA

Decorah, IA, United States (KDEH) 43-17N 091-44W
Jun 18, 2019 - 08:35 AM EDT / 2019.06.18 1235 UTC
Wind: Calm:0
Visibility: 2 1/2 mile(s):0
Sky conditions: mostly cloudy
Weather: mist
Temperature: 64 F (18 C)
Dew Point: 62 F (17 C)
Relative Humidity: 93%
Pressure (altimeter): 29.97 in. Hg (1014 hPa)
ob: KDEH 181235Z AUTO 00000KT 2 1/2SM BR BKN011 BKN046 BKN055 18/17 A2997 RMK AO2
cycle: 12

Station Type Date Time Source
KDEH TAF UTC NOAA

Error!

Example: see airport list